Hrossey — VSTY6 — position and weather

sailwx.info

Track history (hours):
 
Tides and Currents Weather Stations Pressure Air Temp Water Temp Dewpoint Dewpoint Depression Visibility Wind Speed Wind Dir Waves Ship Positions

Hrossey

Operator: NorthLink Orkey & Shetland Ferries Ltd

Last reported at 2017-Oct-20 19:30 UTC. Time now 2017-Oct-20 19:50 UTC.
Position N 57°32' W 001°38'.

Length 125 m; draft 5.4 m.

Type: Passenger vessel. MMSI: 235448000.

Date/timePositionNaut miles runAvg speedWind from/ knotsBaromVisibWave heightAir tempDewpointWater temp
2017-Oct-20 19:30N 57°32' W 001°38'1617.4
2017-Oct-20 18:36N 57°18' W 001°51'219.0
2017-Oct-20 18:29N 57°17' W 001°53'918.7
2017-Oct-20 18:00N 57°09' W 002°02'2 3.3
2017-Oct-20 17:30N 57°09' W 002°05'0 0.0
2017-Oct-20 17:00N 57°09' W 002°05'0 0.0
2017-Oct-20 16:30N 57°09' W 002°05'0 0.0
2017-Oct-20 16:00N 57°09' W 002°05'0 0.0
2017-Oct-20 15:30N 57°09' W 002°05'0 0.0
2017-Oct-20 15:00N 57°09' W 002°05'0 0.0
2017-Oct-20 14:00N 57°09' W 002°05'0 0.0
2017-Oct-20 13:30N 57°09' W 002°05'0 0.0
2017-Oct-20 13:00N 57°09' W 002°05'0 0.0
2017-Oct-20 12:30N 57°09' W 002°05'0 0.0
2017-Oct-20 12:00N 57°09' W 002°05'0 0.0
2017-Oct-20 11:30N 57°09' W 002°05'0 0.0
2017-Oct-20 11:00N 57°09' W 002°05'0 0.0
2017-Oct-20 10:30N 57°09' W 002°05'0 0.0
2017-Oct-20 10:00N 57°09' W 002°05'0 0.0
2017-Oct-20 09:30N 57°09' W 002°05'0 0.0
2017-Oct-20 09:00N 57°09' W 002°05'0 0.0
2017-Oct-20 08:30N 57°09' W 002°05'0 0.0
2017-Oct-20 08:00N 57°09' W 002°05'0 0.0
2017-Oct-20 07:30N 57°09' W 002°05'0 0.0
2017-Oct-20 07:00N 57°09' W 002°05'0 0.0
2017-Oct-20 06:30N 57°09' W 002°05'0 0.0
2017-Oct-20 06:00N 57°09' W 002°05'0 0.9
2017-Oct-20 05:30N 57°09' W 002°05'611.3
2017-Oct-20 05:00N 57°12' W 001°57'2113.2
2017-Oct-20 03:23N 57°31' W 001°38'512.3
2017-Oct-20 02:59N 57°36' W 001°38'715.4
2017-Oct-20 02:30N 57°43' W 001°38'10 0.3
2017-Oct-18 20:43N 57°53' W 001°36'718.3
2017-Oct-18 20:18N 57°45' W 001°36'618.5
2017-Oct-18 20:00N 57°40' W 001°35'918.6
2017-Oct-18 19:30N 57°31' W 001°37'1418.9
2017-Oct-18 18:45N 57°18' W 001°50'519.3
2017-Oct-18 18:30N 57°14' W 001°55'714.9
2017-Oct-18 18:00N 57°09' W 002°04'1 1.6
2017-Oct-18 17:30N 57°09' W 002°05'0 0.0
2017-Oct-18 17:00N 57°09' W 002°05'0 0.0
2017-Oct-18 16:30N 57°09' W 002°05'0 0.0
2017-Oct-18 16:00N 57°09' W 002°05'0 0.0
2017-Oct-18 15:30N 57°09' W 002°05'0 0.0
2017-Oct-18 15:00N 57°09' W 002°05'0 0.0
2017-Oct-18 14:00N 57°09' W 002°05'0 0.0
2017-Oct-18 13:30N 57°09' W 002°05'0 0.0
2017-Oct-18 13:00N 57°09' W 002°05'0 0.0
2017-Oct-18 12:30N 57°09' W 002°05'0 0.0
2017-Oct-18 12:00N 57°09' W 002°05'0 0.0
2017-Oct-18 11:30N 57°09' W 002°05'0 0.0
2017-Oct-18 11:00N 57°09' W 002°05'0 0.0
2017-Oct-18 10:30N 57°09' W 002°05'0 0.0
2017-Oct-18 10:00N 57°09' W 002°05'0 0.0
2017-Oct-18 09:30N 57°09' W 002°05'0 0.0
2017-Oct-18 09:00N 57°09' W 002°05'0 0.0
2017-Oct-18 08:30N 57°09' W 002°05'0 0.0
2017-Oct-18 08:00N 57°09' W 002°05'0 0.0
2017-Oct-18 07:30N 57°09' W 002°05'0 0.0
2017-Oct-18 07:00N 57°09' W 002°05'0 0.0
2017-Oct-18 06:30N 57°09' W 002°05'0 0.0
2017-Oct-18 06:00N 57°09' W 002°05'1 1.3
2017-Oct-18 05:30N 57°08' W 002°04'714.8
2017-Oct-18 05:00N 57°14' W 001°55'1617.1
2017-Oct-18 04:05N 57°27' W 001°39'114.9
2017-Oct-18 04:00N 57°28' W 001°39'815.1
2017-Oct-18 03:30N 57°36' W 001°40'815.7
2017-Oct-18 03:00N 57°44' W 001°41'10 0.3
2017-Oct-16 22:02N 57°53' W 001°35'812.0
2017-Oct-16 21:24N 57°45' W 001°36'511.9
2017-Oct-16 21:00N 57°41' W 001°36'711.8
2017-Oct-16 20:23N 57°33' W 001°36'411.9
2017-Oct-16 20:00N 57°29' W 001°36'1512.2
2017-Oct-16 18:48N 57°17' W 001°52'413.1
2017-Oct-16 18:30N 57°14' W 001°56'713.5
2017-Oct-16 18:00N 57°09' W 002°04'1 1.6
2017-Oct-16 17:30N 57°09' W 002°05'0 0.0
2017-Oct-16 17:00N 57°09' W 002°05'0 0.0
2017-Oct-16 16:30N 57°09' W 002°05'0 0.0
2017-Oct-16 16:00N 57°09' W 002°05'0 0.0
2017-Oct-16 15:30N 57°09' W 002°05'0 0.0
2017-Oct-16 15:00N 57°09' W 002°05'0 0.0
2017-Oct-16 14:00N 57°09' W 002°05'0 0.0
2017-Oct-16 13:30N 57°09' W 002°05'0 0.0
2017-Oct-16 13:00N 57°09' W 002°05'0 0.0
2017-Oct-16 12:30N 57°09' W 002°05'0 0.0
2017-Oct-16 12:00N 57°09' W 002°05'0 0.0
2017-Oct-16 11:30N 57°09' W 002°05'0 0.0
2017-Oct-16 11:00N 57°09' W 002°05'0 0.0
2017-Oct-16 10:30N 57°09' W 002°05'0 0.0
2017-Oct-16 10:00N 57°09' W 002°05'0 0.0
2017-Oct-16 09:30N 57°09' W 002°05'0 0.0
2017-Oct-16 09:00N 57°09' W 002°05'0 0.0
2017-Oct-16 08:30N 57°09' W 002°05'0 0.0
2017-Oct-16 08:00N 57°09' W 002°05'0 0.0
2017-Oct-16 07:30N 57°09' W 002°05'0 0.0
2017-Oct-16 07:00N 57°09' W 002°05'0 0.0
2017-Oct-16 06:30N 57°09' W 002°05'0 0.0
2017-Oct-16 06:00N 57°09' W 002°05'0 1.0
2017-Oct-16 05:30N 57°09' W 002°05'612.7
2017-Oct-16 05:00N 57°13' W 001°56'612.0
2017-Oct-16 04:30N 57°18' W 001°50'1212.0
2017-Oct-16 03:29N 57°29' W 001°39'1016.9
2017-Oct-16 02:54N 57°39' W 001°38'1117.7
2017-Oct-16 02:15N 57°50' W 001°39'79 3.0
2017-Oct-15 00:11N 59°05' W 002°27'314.6
2017-Oct-15 00:00N 59°03' W 002°30'612.5
2017-Oct-14 23:30N 59°00' W 002°41'815.3
2017-Oct-14 23:00N 59°01' W 002°56'2 3.6
2017-Oct-14 22:30N 58°60' W 002°58'0 0.0
2017-Oct-14 22:00N 58°60' W 002°58'3 6.1
2017-Oct-14 21:29N 59°01' W 002°52'1121.9
2017-Oct-14 21:00N 58°55' W 002°36'3023.5
2017-Oct-14 19:44N 58°27' W 002°14'3822.9
2017-Oct-14 18:05N 57°51' W 001°50'223.4
2017-Oct-14 18:00N 57°49' W 001°49'1123.1
2017-Oct-14 17:30N 57°38' W 001°43'1223.0
2017-Oct-14 17:00N 57°27' W 001°40'1223.4
2017-Oct-14 16:30N 57°17' W 001°52'1121.8
2017-Oct-14 16:00N 57°09' W 002°04'1 1.6
2017-Oct-14 15:30N 57°09' W 002°05'0 0.0
2017-Oct-14 15:00N 57°09' W 002°05'0 0.0
2017-Oct-14 14:30N 57°09' W 002°05'0 0.0
2017-Oct-14 14:00N 57°09' W 002°05'0 0.0
2017-Oct-14 13:30N 57°09' W 002°05'0 0.0
2017-Oct-14 13:00N 57°09' W 002°05'0 0.0
2017-Oct-14 12:30N 57°09' W 002°05'0 0.0
2017-Oct-14 12:00N 57°09' W 002°05'0 0.0
2017-Oct-14 11:30N 57°09' W 002°05'0 0.0
2017-Oct-14 11:00N 57°09' W 002°05'0 0.0
2017-Oct-14 10:30N 57°09' W 002°05'0 0.0
2017-Oct-14 10:00N 57°09' W 002°05'0 0.0
2017-Oct-14 09:30N 57°09' W 002°05'0 0.0
2017-Oct-14 09:00N 57°09' W 002°05'0 0.0
2017-Oct-14 08:30N 57°09' W 002°05'0 0.0
2017-Oct-14 08:00N 57°09' W 002°05'0 0.0
2017-Oct-14 07:30N 57°09' W 002°05'0 0.0
2017-Oct-14 07:00N 57°09' W 002°05'0 0.0
2017-Oct-14 06:30N 57°09' W 002°05'0 0.0
2017-Oct-14 06:00N 57°09' W 002°05'1 1.2
2017-Oct-14 05:30N 57°08' W 002°04'714.4
2017-Oct-14 05:00N 57°14' W 001°55'1622.2
2017-Oct-14 04:17N 57°27' W 001°39'622.1
2017-Oct-14 04:00N 57°33' W 001°39'1321.9
2017-Oct-14 03:24N 57°46' W 001°46'7720.5
2017-Oct-13 23:38N 58°58' W 002°39'318.0
2017-Oct-13 23:29N 59°00' W 002°43'816.7
2017-Oct-13 23:00N 58°60' W 002°58'0 0.3
2017-Oct-13 22:29N 58°60' W 002°58'0 0.0
2017-Oct-13 22:00N 58°60' W 002°58'0 0.9
2017-Oct-13 21:30N 59°00' W 002°58'816.2
2017-Oct-13 21:00N 59°01' W 002°42'8 0.4
2017-Oct-13 00:21N 59°04' W 002°28'716.8
2017-Oct-12 23:57N 59°00' W 002°39'817.7
2017-Oct-12 23:30N 59°01' W 002°54'2 3.9
2017-Oct-12 22:56N 58°60' W 002°58'0 0.0
2017-Oct-12 22:30N 58°60' W 002°58'0 0.0
2017-Oct-12 21:56N 58°60' W 002°58'410.5
2017-Oct-12 21:30N 59°00' W 002°50'7623.0
2017-Oct-12 18:12N 57°52' W 001°48'522.8
2017-Oct-12 18:00N 57°47' W 001°46'1122.0
2017-Oct-12 17:30N 57°37' W 001°42'1121.0
2017-Oct-12 17:00N 57°26' W 001°41'1122.2
2017-Oct-12 16:30N 57°17' W 001°52'1020.7
2017-Oct-12 16:00N 57°09' W 002°04'1 1.6
2017-Oct-12 15:30N 57°09' W 002°05'0 0.0
2017-Oct-12 15:00N 57°09' W 002°05'0 0.0
2017-Oct-12 14:30N 57°09' W 002°05'0 0.0
2017-Oct-12 14:00N 57°09' W 002°05'0 0.0
2017-Oct-12 13:30N 57°09' W 002°05'0 0.0
2017-Oct-12 13:00N 57°09' W 002°05'0 0.0
2017-Oct-12 12:30N 57°09' W 002°05'0 0.0
2017-Oct-12 12:00N 57°09' W 002°05'0 0.0
2017-Oct-12 11:31N 57°09' W 002°05'0 0.0
2017-Oct-12 11:00N 57°09' W 002°05'0 0.0
2017-Oct-12 10:30N 57°09' W 002°05'0 0.0
2017-Oct-12 10:00N 57°09' W 002°05'0 0.0
2017-Oct-12 09:30N 57°09' W 002°05'0 0.0
2017-Oct-12 09:00N 57°09' W 002°05'0 0.0
2017-Oct-12 08:30N 57°09' W 002°05'0 0.0
2017-Oct-12 08:00N 57°09' W 002°05'0 0.0
2017-Oct-12 07:30N 57°09' W 002°05'0 0.0
2017-Oct-12 07:00N 57°09' W 002°05'0 0.0
2017-Oct-12 06:30N 57°09' W 002°05'0 0.0
2017-Oct-12 06:00N 57°09' W 002°05'1 1.2
2017-Oct-12 05:30N 57°08' W 002°04'713.7
2017-Oct-12 05:00N 57°13' W 001°55'1716.5
2017-Oct-12 04:00N 57°27' W 001°39'917.6
2017-Oct-12 03:30N 57°36' W 001°41'1222.3
2017-Oct-12 02:59N 57°47' W 001°45'7721.6
2017-Oct-11 23:25N 58°59' W 002°39'922.1
2017-Oct-11 23:00N 59°01' W 002°55'2 4.0
2017-Oct-11 22:30N 58°60' W 002°58'0 0.0
2017-Oct-11 21:59N 58°60' W 002°58'0 0.0
2017-Oct-11 21:30N 58°60' W 002°58'510.7
2017-Oct-11 21:00N 59°00' W 002°48'11 0.5
2017-Oct-10 23:57N 59°04' W 002°28'715.2
2017-Oct-10 23:30N 59°00' W 002°40'918.0
2017-Oct-10 23:00N 59°01' W 002°57'1 2.0
2017-Oct-10 22:19N 58°60' W 002°58'0 0.0
2017-Oct-10 21:49N 58°60' W 002°58'3 9.8
2017-Oct-10 21:30N 59°01' W 002°53'1020.4
2017-Oct-10 21:00N 58°55' W 002°36'  
Track history (hours):
 
Tides and Currents Weather Stations Pressure Air Temp Water Temp Dewpoint Dewpoint Depression Visibility Wind Speed Wind Dir Waves Ship Positions

Hrossey

Operator: NorthLink Orkey & Shetland Ferries Ltd

Last reported at 2017-Oct-20 19:30 UTC. Time now 2017-Oct-20 19:50 UTC.
Position N 57°32' W 001°38'.

Length 125 m; draft 5.4 m.

Type: Passenger vessel. MMSI: 235448000.

Date/timePositionNaut miles runAvg speedWind from/ knotsBaromVisibWave heightAir tempDewpointWater temp
2017-Oct-20 19:30N 57°32' W 001°38'1617.4
2017-Oct-20 18:36N 57°18' W 001°51'219.0
2017-Oct-20 18:29N 57°17' W 001°53'918.7
2017-Oct-20 18:00N 57°09' W 002°02'2 3.3
2017-Oct-20 17:30N 57°09' W 002°05'0 0.0
2017-Oct-20 17:00N 57°09' W 002°05'0 0.0
2017-Oct-20 16:30N 57°09' W 002°05'0 0.0
2017-Oct-20 16:00N 57°09' W 002°05'0 0.0
2017-Oct-20 15:30N 57°09' W 002°05'0 0.0
2017-Oct-20 15:00N 57°09' W 002°05'0 0.0
2017-Oct-20 14:00N 57°09' W 002°05'0 0.0
2017-Oct-20 13:30N 57°09' W 002°05'0 0.0
2017-Oct-20 13:00N 57°09' W 002°05'0 0.0
2017-Oct-20 12:30N 57°09' W 002°05'0 0.0
2017-Oct-20 12:00N 57°09' W 002°05'0 0.0
2017-Oct-20 11:30N 57°09' W 002°05'0 0.0
2017-Oct-20 11:00N 57°09' W 002°05'0 0.0
2017-Oct-20 10:30N 57°09' W 002°05'0 0.0
2017-Oct-20 10:00N 57°09' W 002°05'0 0.0
2017-Oct-20 09:30N 57°09' W 002°05'0 0.0
2017-Oct-20 09:00N 57°09' W 002°05'0 0.0
2017-Oct-20 08:30N 57°09' W 002°05'0 0.0
2017-Oct-20 08:00N 57°09' W 002°05'0 0.0
2017-Oct-20 07:30N 57°09' W 002°05'0 0.0
2017-Oct-20 07:00N 57°09' W 002°05'0 0.0
2017-Oct-20 06:30N 57°09' W 002°05'0 0.0
2017-Oct-20 06:00N 57°09' W 002°05'0 0.9
2017-Oct-20 05:30N 57°09' W 002°05'611.3
2017-Oct-20 05:00N 57°12' W 001°57'2113.2
2017-Oct-20 03:23N 57°31' W 001°38'512.3
2017-Oct-20 02:59N 57°36' W 001°38'715.4
2017-Oct-20 02:30N 57°43' W 001°38'10 0.3
2017-Oct-18 20:43N 57°53' W 001°36'718.3
2017-Oct-18 20:18N 57°45' W 001°36'618.5
2017-Oct-18 20:00N 57°40' W 001°35'918.6
2017-Oct-18 19:30N 57°31' W 001°37'1418.9
2017-Oct-18 18:45N 57°18' W 001°50'519.3
2017-Oct-18 18:30N 57°14' W 001°55'714.9
2017-Oct-18 18:00N 57°09' W 002°04'1 1.6
2017-Oct-18 17:30N 57°09' W 002°05'0 0.0
2017-Oct-18 17:00N 57°09' W 002°05'0 0.0
2017-Oct-18 16:30N 57°09' W 002°05'0 0.0
2017-Oct-18 16:00N 57°09' W 002°05'0 0.0
2017-Oct-18 15:30N 57°09' W 002°05'0 0.0
2017-Oct-18 15:00N 57°09' W 002°05'0 0.0
2017-Oct-18 14:00N 57°09' W 002°05'0 0.0
2017-Oct-18 13:30N 57°09' W 002°05'0 0.0
2017-Oct-18 13:00N 57°09' W 002°05'0 0.0
2017-Oct-18 12:30N 57°09' W 002°05'0 0.0
2017-Oct-18 12:00N 57°09' W 002°05'0 0.0
2017-Oct-18 11:30N 57°09' W 002°05'0 0.0
2017-Oct-18 11:00N 57°09' W 002°05'0 0.0
2017-Oct-18 10:30N 57°09' W 002°05'0 0.0
2017-Oct-18 10:00N 57°09' W 002°05'0 0.0
2017-Oct-18 09:30N 57°09' W 002°05'0 0.0
2017-Oct-18 09:00N 57°09' W 002°05'0 0.0
2017-Oct-18 08:30N 57°09' W 002°05'0 0.0
2017-Oct-18 08:00N 57°09' W 002°05'0 0.0
2017-Oct-18 07:30N 57°09' W 002°05'0 0.0
2017-Oct-18 07:00N 57°09' W 002°05'0 0.0
2017-Oct-18 06:30N 57°09' W 002°05'0 0.0
2017-Oct-18 06:00N 57°09' W 002°05'1 1.3
2017-Oct-18 05:30N 57°08' W 002°04'714.8
2017-Oct-18 05:00N 57°14' W 001°55'1617.1
2017-Oct-18 04:05N 57°27' W 001°39'114.9
2017-Oct-18 04:00N 57°28' W 001°39'815.1
2017-Oct-18 03:30N 57°36' W 001°40'815.7
2017-Oct-18 03:00N 57°44' W 001°41'10 0.3
2017-Oct-16 22:02N 57°53' W 001°35'812.0
2017-Oct-16 21:24N 57°45' W 001°36'511.9
2017-Oct-16 21:00N 57°41' W 001°36'711.8
2017-Oct-16 20:23N 57°33' W 001°36'411.9
2017-Oct-16 20:00N 57°29' W 001°36'1512.2
2017-Oct-16 18:48N 57°17' W 001°52'413.1
2017-Oct-16 18:30N 57°14' W 001°56'713.5
2017-Oct-16 18:00N 57°09' W 002°04'1 1.6
2017-Oct-16 17:30N 57°09' W 002°05'0 0.0
2017-Oct-16 17:00N 57°09' W 002°05'0 0.0
2017-Oct-16 16:30N 57°09' W 002°05'0 0.0
2017-Oct-16 16:00N 57°09' W 002°05'0 0.0
2017-Oct-16 15:30N 57°09' W 002°05'0 0.0
2017-Oct-16 15:00N 57°09' W 002°05'0 0.0
2017-Oct-16 14:00N 57°09' W 002°05'0 0.0
2017-Oct-16 13:30N 57°09' W 002°05'0 0.0
2017-Oct-16 13:00N 57°09' W 002°05'0 0.0
2017-Oct-16 12:30N 57°09' W 002°05'0 0.0
2017-Oct-16 12:00N 57°09' W 002°05'0 0.0
2017-Oct-16 11:30N 57°09' W 002°05'0 0.0
2017-Oct-16 11:00N 57°09' W 002°05'0 0.0
2017-Oct-16 10:30N 57°09' W 002°05'0 0.0
2017-Oct-16 10:00N 57°09' W 002°05'0 0.0
2017-Oct-16 09:30N 57°09' W 002°05'0 0.0
2017-Oct-16 09:00N 57°09' W 002°05'0 0.0
2017-Oct-16 08:30N 57°09' W 002°05'0 0.0
2017-Oct-16 08:00N 57°09' W 002°05'0 0.0
2017-Oct-16 07:30N 57°09' W 002°05'0 0.0
2017-Oct-16 07:00N 57°09' W 002°05'0 0.0
2017-Oct-16 06:30N 57°09' W 002°05'0 0.0
2017-Oct-16 06:00N 57°09' W 002°05'0 1.0
2017-Oct-16 05:30N 57°09' W 002°05'612.7
2017-Oct-16 05:00N 57°13' W 001°56'612.0
2017-Oct-16 04:30N 57°18' W 001°50'1212.0
2017-Oct-16 03:29N 57°29' W 001°39'1016.9
2017-Oct-16 02:54N 57°39' W 001°38'1117.7
2017-Oct-16 02:15N 57°50' W 001°39'79 3.0
2017-Oct-15 00:11N 59°05' W 002°27'314.6
2017-Oct-15 00:00N 59°03' W 002°30'612.5
2017-Oct-14 23:30N 59°00' W 002°41'815.3
2017-Oct-14 23:00N 59°01' W 002°56'2 3.6
2017-Oct-14 22:30N 58°60' W 002°58'0 0.0
2017-Oct-14 22:00N 58°60' W 002°58'3 6.1
2017-Oct-14 21:29N 59°01' W 002°52'1121.9
2017-Oct-14 21:00N 58°55' W 002°36'3023.5
2017-Oct-14 19:44N 58°27' W 002°14'3822.9
2017-Oct-14 18:05N 57°51' W 001°50'223.4
2017-Oct-14 18:00N 57°49' W 001°49'1123.1
2017-Oct-14 17:30N 57°38' W 001°43'1223.0
2017-Oct-14 17:00N 57°27' W 001°40'1223.4
2017-Oct-14 16:30N 57°17' W 001°52'1121.8
2017-Oct-14 16:00N 57°09' W 002°04'1 1.6
2017-Oct-14 15:30N 57°09' W 002°05'0 0.0
2017-Oct-14 15:00N 57°09' W 002°05'0 0.0
2017-Oct-14 14:30N 57°09' W 002°05'0 0.0
2017-Oct-14 14:00N 57°09' W 002°05'0 0.0
2017-Oct-14 13:30N 57°09' W 002°05'0 0.0
2017-Oct-14 13:00N 57°09' W 002°05'0 0.0
2017-Oct-14 12:30N 57°09' W 002°05'0 0.0
2017-Oct-14 12:00N 57°09' W 002°05'0 0.0
2017-Oct-14 11:30N 57°09' W 002°05'0 0.0
2017-Oct-14 11:00N 57°09' W 002°05'0 0.0
2017-Oct-14 10:30N 57°09' W 002°05'0 0.0
2017-Oct-14 10:00N 57°09' W 002°05'0 0.0
2017-Oct-14 09:30N 57°09' W 002°05'0 0.0
2017-Oct-14 09:00N 57°09' W 002°05'0 0.0
2017-Oct-14 08:30N 57°09' W 002°05'0 0.0
2017-Oct-14 08:00N 57°09' W 002°05'0 0.0
2017-Oct-14 07:30N 57°09' W 002°05'0 0.0
2017-Oct-14 07:00N 57°09' W 002°05'0 0.0
2017-Oct-14 06:30N 57°09' W 002°05'0 0.0
2017-Oct-14 06:00N 57°09' W 002°05'1 1.2
2017-Oct-14 05:30N 57°08' W 002°04'714.4
2017-Oct-14 05:00N 57°14' W 001°55'1622.2
2017-Oct-14 04:17N 57°27' W 001°39'622.1
2017-Oct-14 04:00N 57°33' W 001°39'1321.9
2017-Oct-14 03:24N 57°46' W 001°46'7720.5
2017-Oct-13 23:38N 58°58' W 002°39'318.0
2017-Oct-13 23:29N 59°00' W 002°43'816.7
2017-Oct-13 23:00N 58°60' W 002°58'0 0.3
2017-Oct-13 22:29N 58°60' W 002°58'0 0.0
2017-Oct-13 22:00N 58°60' W 002°58'0 0.9
2017-Oct-13 21:30N 59°00' W 002°58'816.2
2017-Oct-13 21:00N 59°01' W 002°42'8 0.4
2017-Oct-13 00:21N 59°04' W 002°28'716.8
2017-Oct-12 23:57N 59°00' W 002°39'817.7
2017-Oct-12 23:30N 59°01' W 002°54'2 3.9
2017-Oct-12 22:56N 58°60' W 002°58'0 0.0
2017-Oct-12 22:30N 58°60' W 002°58'0 0.0
2017-Oct-12 21:56N 58°60' W 002°58'410.5
2017-Oct-12 21:30N 59°00' W 002°50'7623.0
2017-Oct-12 18:12N 57°52' W 001°48'522.8
2017-Oct-12 18:00N 57°47' W 001°46'1122.0
2017-Oct-12 17:30N 57°37' W 001°42'1121.0
2017-Oct-12 17:00N 57°26' W 001°41'1122.2
2017-Oct-12 16:30N 57°17' W 001°52'1020.7
2017-Oct-12 16:00N 57°09' W 002°04'1 1.6
2017-Oct-12 15:30N 57°09' W 002°05'0 0.0
2017-Oct-12 15:00N 57°09' W 002°05'0 0.0
2017-Oct-12 14:30N 57°09' W 002°05'0 0.0
2017-Oct-12 14:00N 57°09' W 002°05'0 0.0
2017-Oct-12 13:30N 57°09' W 002°05'0 0.0
2017-Oct-12 13:00N 57°09' W 002°05'0 0.0
2017-Oct-12 12:30N 57°09' W 002°05'0 0.0
2017-Oct-12 12:00N 57°09' W 002°05'0 0.0
2017-Oct-12 11:31N 57°09' W 002°05'0 0.0
2017-Oct-12 11:00N 57°09' W 002°05'0 0.0
2017-Oct-12 10:30N 57°09' W 002°05'0 0.0
2017-Oct-12 10:00N 57°09' W 002°05'0 0.0
2017-Oct-12 09:30N 57°09' W 002°05'0 0.0
2017-Oct-12 09:00N 57°09' W 002°05'0 0.0
2017-Oct-12 08:30N 57°09' W 002°05'0 0.0
2017-Oct-12 08:00N 57°09' W 002°05'0 0.0
2017-Oct-12 07:30N 57°09' W 002°05'0 0.0
2017-Oct-12 07:00N 57°09' W 002°05'0 0.0
2017-Oct-12 06:30N 57°09' W 002°05'0 0.0
2017-Oct-12 06:00N 57°09' W 002°05'1 1.2
2017-Oct-12 05:30N 57°08' W 002°04'713.7
2017-Oct-12 05:00N 57°13' W 001°55'1716.5
2017-Oct-12 04:00N 57°27' W 001°39'917.6
2017-Oct-12 03:30N 57°36' W 001°41'1222.3
2017-Oct-12 02:59N 57°47' W 001°45'7721.6
2017-Oct-11 23:25N 58°59' W 002°39'922.1
2017-Oct-11 23:00N 59°01' W 002°55'2 4.0
2017-Oct-11 22:30N 58°60' W 002°58'0 0.0
2017-Oct-11 21:59N 58°60' W 002°58'0 0.0
2017-Oct-11 21:30N 58°60' W 002°58'510.7
2017-Oct-11 21:00N 59°00' W 002°48'11 0.5
2017-Oct-10 23:57N 59°04' W 002°28'715.2
2017-Oct-10 23:30N 59°00' W 002°40'918.0
2017-Oct-10 23:00N 59°01' W 002°57'1 2.0
2017-Oct-10 22:19N 58°60' W 002°58'0 0.0
2017-Oct-10 21:49N 58°60' W 002°58'3 9.8
2017-Oct-10 21:30N 59°01' W 002°53'1020.4
2017-Oct-10 21:00N 58°55' W 002°36'  

Dump ship's entire track history